Time;durP1;ratioP1;P1;durP2;ratioP2;P2;SDS_P1;SDS_P2;PMS_P1;PMS_P2;Temp;Humidity;BMP_temperature;BMP_pressure;BME280_temperature;BME280_humidity;BME280_pressure;Samples;Min_cycle;Max_cycle;Signal;HPM_P1;HPM_P2
2020/12/30 00:00:42;;;;;;;27.27;11.80;;;;;;;;;;10257929;28;20172;-63
2020/12/30 00:05:41;;;;;;;25.23;11.47;;;;;;;;;;10246101;28;20034;-62
2020/12/30 00:10:38;;;;;;;24.38;12.32;;;;;;;;;;10244315;28;20086;-61
2020/12/30 00:15:36;;;;;;;25.53;11.50;;;;;;;;;;10255398;28;20034;-63
2020/12/30 00:20:33;;;;;;;27.70;12.17;;;;;;;;;;10240652;28;20555;-62
2020/12/30 00:25:30;;;;;;;24.43;11.37;;;;;;;;;;10250151;28;20522;-62
2020/12/30 00:30:28;;;;;;;20.93;9.40;;;;;;;;;;10257160;28;20492;-63
2020/12/30 00:35:25;;;;;;;25.87;10.73;;;;;;;;;;10254165;28;20052;-61
2020/12/30 00:40:23;;;;;;;17.47;7.90;;;;;;;;;;10266583;28;20447;-62
2020/12/30 00:45:20;;;;;;;23.40;9.30;;;;;;;;;;10252032;28;20510;-62
2020/12/30 00:50:17;;;;;;;26.83;10.37;;;;;;;;;;10288946;28;20404;-62
2020/12/30 00:55:16;;;;;;;19.07;9.30;;;;;;;;;;10272749;28;20030;-62
2020/12/30 01:00:21;;;;;;;19.67;9.85;;;;;;;;;;10246981;28;20411;-62
2020/12/30 01:05:51;;;;;;;;;;;;;;;;;;10263227;28;20115;-61
2020/12/30 01:10:48;;;;;;;20.25;8.95;;;;;;;;;;10274138;28;19921;-61
2020/12/30 01:15:46;;;;;;;23.10;8.67;;;;;;;;;;10276686;28;20030;-62
2020/12/30 01:20:43;;;;;;;25.77;10.73;;;;;;;;;;10271827;28;20037;-62
2020/12/30 01:25:40;;;;;;;25.83;10.77;;;;;;;;;;10264967;28;20431;-62
2020/12/30 01:30:38;;;;;;;23.77;9.90;;;;;;;;;;10264939;28;20587;-62
2020/12/30 01:35:35;;;;;;;24.47;11.97;;;;;;;;;;10268804;28;20484;-62
2020/12/30 01:40:32;;;;;;;20.47;9.73;;;;;;;;;;10286923;28;20124;-62
2020/12/30 01:45:30;;;;;;;19.13;9.13;;;;;;;;;;10277858;28;20076;-62
2020/12/30 01:50:27;;;;;;;24.63;10.47;;;;;;;;;;10279148;28;20133;-62
2020/12/30 01:55:27;;;;;;;21.33;10.70;;;;;;;;;;10276498;28;20033;-61
2020/12/30 02:00:24;;;;;;;25.98;11.30;;;;;;;;;;10280383;28;20084;-62
2020/12/30 02:05:22;;;;;;;20.60;9.10;;;;;;;;;;10288556;28;20508;-62
2020/12/30 02:10:19;;;;;;;24.90;11.03;;;;;;;;;;10262750;28;20072;-62
2020/12/30 02:15:27;;;;;;;24.13;11.10;;;;;;;;;;10271466;28;20033;-62
2020/12/30 02:20:24;;;;;;;20.75;10.73;;;;;;;;;;10263036;28;20037;-61
2020/12/30 02:25:22;;;;;;;25.93;10.90;;;;;;;;;;10289947;28;20076;-62
2020/12/30 02:30:19;;;;;;;19.63;9.15;;;;;;;;;;10275689;28;20033;-61
2020/12/30 02:35:20;;;;;;;20.50;10.10;;;;;;;;;;10288301;28;20039;-62
2020/12/30 02:40:18;;;;;;;23.45;9.70;;;;;;;;;;10291172;28;20041;-63
2020/12/30 02:45:15;;;;;;;15.50;7.57;;;;;;;;;;10266263;28;20899;-62
2020/12/30 02:50:13;;;;;;;20.27;10.20;;;;;;;;;;10268794;28;20459;-61
2020/12/30 02:55:11;;;;;;;16.23;7.87;;;;;;;;;;10274272;28;20503;-61
2020/12/30 03:00:08;;;;;;;19.73;8.20;;;;;;;;;;10278918;28;20037;-61
2020/12/30 03:05:06;;;;;;;16.40;8.30;;;;;;;;;;10266091;28;20064;-61
2020/12/30 03:10:03;;;;;;;9.90;5.63;;;;;;;;;;10290851;28;20041;-62
2020/12/30 03:15:01;;;;;;;16.47;6.77;;;;;;;;;;10278324;28;20611;-61
2020/12/30 03:19:58;;;;;;;13.80;7.07;;;;;;;;;;10266091;28;20491;-61
2020/12/30 03:24:56;;;;;;;16.47;7.63;;;;;;;;;;10270970;28;20045;-63
2020/12/30 03:29:53;;;;;;;19.63;6.47;;;;;;;;;;10270854;28;20033;-60
2020/12/30 03:34:51;;;;;;;14.23;6.70;;;;;;;;;;10272051;28;20037;-62
2020/12/30 03:39:49;;;;;;;17.83;7.93;;;;;;;;;;10270192;28;20415;-62
2020/12/30 03:44:46;;;;;;;16.10;7.78;;;;;;;;;;10290304;28;20100;-62
2020/12/30 03:49:43;;;;;;;13.10;6.83;;;;;;;;;;10268536;28;20038;-62
2020/12/30 03:54:41;;;;;;;14.27;5.67;;;;;;;;;;10276602;28;20431;-62
2020/12/30 03:59:38;;;;;;;13.43;7.17;;;;;;;;;;10277734;28;20061;-61
2020/12/30 04:04:36;;;;;;;14.27;7.07;;;;;;;;;;10268288;28;20553;-62
2020/12/30 04:09:33;;;;;;;15.57;7.60;;;;;;;;;;10276017;28;20075;-61
2020/12/30 04:14:31;;;;;;;12.50;6.47;;;;;;;;;;10269837;28;20091;-62
2020/12/30 04:19:28;;;;;;;9.97;5.60;;;;;;;;;;10277397;28;20029;-62
2020/12/30 04:24:26;;;;;;;13.47;7.00;;;;;;;;;;10274725;28;20128;-62
2020/12/30 04:29:23;;;;;;;14.53;7.47;;;;;;;;;;10280124;28;20045;-62
2020/12/30 04:34:20;;;;;;;12.67;6.33;;;;;;;;;;10254701;28;20855;-62
2020/12/30 04:39:18;;;;;;;15.50;7.07;;;;;;;;;;10279312;22;20084;-64
2020/12/30 04:44:16;;;;;;;17.53;7.80;;;;;;;;;;10242053;28;20064;-66
2020/12/30 04:49:13;;;;;;;16.13;7.93;;;;;;;;;;10241467;28;20070;-65
2020/12/30 04:54:12;;;;;;;17.73;9.07;;;;;;;;;;10192098;28;20145;-64
2020/12/30 04:59:10;;;;;;;19.30;8.82;;;;;;;;;;10210284;28;20076;-64
2020/12/30 05:04:10;;;;;;;16.38;8.20;;;;;;;;;;10208286;28;20424;-65
2020/12/30 05:09:07;;;;;;;21.67;8.73;;;;;;;;;;10201064;28;20576;-65
2020/12/30 05:14:05;;;;;;;16.50;8.17;;;;;;;;;;10214240;28;20043;-65
2020/12/30 05:19:03;;;;;;;22.27;9.93;;;;;;;;;;10206437;28;20500;-64
2020/12/30 05:24:02;;;;;;;20.10;8.48;;;;;;;;;;10205594;28;20035;-65
2020/12/30 05:28:59;;;;;;;22.60;11.50;;;;;;;;;;10195628;28;20042;-65
2020/12/30 05:33:57;;;;;;;26.67;13.00;;;;;;;;;;10192872;28;20497;-65
2020/12/30 05:38:54;;;;;;;30.80;14.80;;;;;;;;;;10202888;28;20046;-65
2020/12/30 05:43:51;;;;;;;27.73;13.97;;;;;;;;;;10191294;28;20050;-65
2020/12/30 05:48:52;;;;;;;26.87;13.87;;;;;;;;;;10202522;28;20039;-65
2020/12/30 05:54:07;;;;;;;27.80;13.60;;;;;;;;;;10190009;28;20509;-64
2020/12/30 05:59:05;;;;;;;31.35;14.10;;;;;;;;;;10195479;28;20526;-65
2020/12/30 06:04:22;;;;;;;29.75;14.02;;;;;;;;;;10195344;28;20133;-65
2020/12/30 06:09:20;;;;;;;32.75;15.40;;;;;;;;;;10178296;28;20031;-65
2020/12/30 06:14:18;;;;;;;33.43;15.00;;;;;;;;;;10181869;28;20038;-65
2020/12/30 06:19:16;;;;;;;37.78;16.58;;;;;;;;;;10162441;28;20073;-64
2020/12/30 06:24:16;;;;;;;25.57;12.23;;;;;;;;;;10159457;28;20457;-64
2020/12/30 06:29:15;;;;;;;36.90;16.45;;;;;;;;;;10178354;28;20409;-64
2020/12/30 06:34:13;;;;;;;29.25;13.60;;;;;;;;;;10193915;28;20049;-64
2020/12/30 06:39:16;;;;;;;34.72;16.20;;;;;;;;;;10193388;28;20514;-65
2020/12/30 06:44:33;;;;;;;32.35;15.15;;;;;;;;;;10196376;28;20070;-65
2020/12/30 06:49:31;;;;;;;29.95;12.50;;;;;;;;;;10205087;28;20045;-65
2020/12/30 06:54:47;;;;;;;30.23;15.17;;;;;;;;;;10187975;28;20053;-65
2020/12/30 06:59:44;;;;;;;32.75;15.07;;;;;;;;;;10196528;28;20129;-63
2020/12/30 07:04:58;;;;;;;38.77;15.60;;;;;;;;;;10208613;28;20619;-62
2020/12/30 07:09:56;;;;;;;32.15;13.95;;;;;;;;;;10163079;28;20164;-63
2020/12/30 07:14:55;;;;;;;33.10;14.40;;;;;;;;;;10208326;28;20137;-63
2020/12/30 07:19:53;;;;;;;37.72;16.45;;;;;;;;;;10203830;28;20375;-63
2020/12/30 07:24:55;;;;;;;30.93;14.60;;;;;;;;;;10167370;28;20109;-63
2020/12/30 07:29:52;;;;;;;34.42;14.30;;;;;;;;;;10191491;28;20195;-63
2020/12/30 07:34:50;;;;;;;22.37;12.47;;;;;;;;;;10193504;28;20133;-62
2020/12/30 07:39:48;;;;;;;29.38;13.30;;;;;;;;;;10203545;28;20482;-64
2020/12/30 07:44:49;;;;;;;36.58;16.67;;;;;;;;;;10197714;28;20038;-63
2020/12/30 07:49:46;;;;;;;26.38;12.02;;;;;;;;;;10199629;28;20492;-63
2020/12/30 07:54:44;;;;;;;36.90;13.40;;;;;;;;;;10186360;28;20042;-63
2020/12/30 07:59:46;;;;;;;32.33;14.83;;;;;;;;;;10190591;28;20116;-63
2020/12/30 08:04:45;;;;;;;29.05;13.52;;;;;;;;;;10181391;28;20539;-64
2020/12/30 08:09:43;;;;;;;25.80;11.73;;;;;;;;;;10180794;28;20137;-63
2020/12/30 08:14:42;;;;;;;27.63;12.30;;;;;;;;;;10165626;28;20043;-64
2020/12/30 08:19:49;;;;;;;17.40;8.45;;;;;;;;;;10185324;28;20180;-65
2020/12/30 08:24:50;;;;;;;23.00;10.27;;;;;;;;;;10171081;28;20382;-66
2020/12/30 08:29:48;;;;;;;24.92;10.68;;;;;;;;;;10193283;28;20050;-65
2020/12/30 08:34:53;;;;;;;21.63;9.32;;;;;;;;;;10175686;28;20504;-65
2020/12/30 08:40:05;;;;;;;23.30;11.20;;;;;;;;;;10160306;28;20092;-63
2020/12/30 08:45:03;;;;;;;20.77;9.52;;;;;;;;;;10202048;28;20053;-66
2020/12/30 08:50:02;;;;;;;19.80;8.65;;;;;;;;;;10195854;28;20228;-65
2020/12/30 08:55:00;;;;;;;18.27;10.25;;;;;;;;;;10187693;28;20088;-64
2020/12/30 09:00:13;;;;;;;24.98;8.65;;;;;;;;;;10176998;28;20196;-65
2020/12/30 09:05:10;;;;;;;16.92;6.72;;;;;;;;;;10172678;28;20077;-63
2020/12/30 09:10:09;;;;;;;15.83;6.97;;;;;;;;;;10163767;28;20125;-66
2020/12/30 09:15:07;;;;;;;22.05;9.40;;;;;;;;;;10190126;28;20042;-62
2020/12/30 09:20:14;;;;;;;22.10;9.23;;;;;;;;;;10195920;28;20038;-64
2020/12/30 09:25:24;;;;;;;11.45;6.88;;;;;;;;;;10189109;28;20030;-63
2020/12/30 09:30:25;;;;;;;20.33;10.32;;;;;;;;;;10165127;28;20034;-64
2020/12/30 09:35:28;;;;;;;17.92;8.18;;;;;;;;;;10181192;28;20109;-64
2020/12/30 09:40:26;;;;;;;15.10;7.88;;;;;;;;;;10190527;28;20038;-64
2020/12/30 09:45:23;;;;;;;21.77;9.32;;;;;;;;;;10198939;28;20038;-64
2020/12/30 09:50:21;;;;;;;20.43;7.57;;;;;;;;;;10181457;28;20050;-64
2020/12/30 09:55:18;;;;;;;15.77;8.60;;;;;;;;;;10199531;28;20041;-64
2020/12/30 10:00:15;;;;;;;12.47;6.37;;;;;;;;;;10191294;28;20126;-63
2020/12/30 10:05:13;;;;;;;18.03;9.17;;;;;;;;;;10185142;28;20031;-64
2020/12/30 10:10:10;;;;;;;16.53;8.93;;;;;;;;;;10171324;28;20074;-61
2020/12/30 10:15:08;;;;;;;15.33;6.57;;;;;;;;;;10195877;28;20097;-64
2020/12/30 10:20:09;;;;;;;15.38;7.45;;;;;;;;;;10202965;28;20041;-64
2020/12/30 10:25:09;;;;;;;20.63;8.55;;;;;;;;;;10198708;28;20038;-63
2020/12/30 10:30:07;;;;;;;20.40;8.90;;;;;;;;;;10164892;28;20061;-62
2020/12/30 10:35:06;;;;;;;21.02;6.80;;;;;;;;;;10184030;28;20090;-62
2020/12/30 10:40:04;;;;;;;14.15;6.97;;;;;;;;;;10201138;28;20459;-62
2020/12/30 10:45:01;;;;;;;;;;;;;;;;;;10193792;28;20034;-63
2020/12/30 10:49:59;;;;;;;21.92;8.52;;;;;;;;;;10189050;28;19921;-64
2020/12/30 10:54:56;;;;;;;20.07;8.93;;;;;;;;;;10186464;28;20109;-63
2020/12/30 10:59:54;;;;;;;28.20;8.63;;;;;;;;;;10214195;28;20535;-64
2020/12/30 11:04:51;;;;;;;21.83;9.27;;;;;;;;;;10189290;28;20046;-63
2020/12/30 11:09:50;;;;;;;16.53;8.57;;;;;;;;;;10196095;28;20493;-61
2020/12/30 11:14:47;;;;;;;;;;;;;;;;;;10170563;28;20038;-64
2020/12/30 11:19:45;;;;;;;14.32;6.25;;;;;;;;;;10174645;28;19932;-64
2020/12/30 11:24:42;;;;;;;19.50;8.83;;;;;;;;;;10204307;28;20042;-64
2020/12/30 11:29:40;;;;;;;19.77;8.03;;;;;;;;;;10177718;28;20038;-64
2020/12/30 11:34:37;;;;;;;15.00;7.43;;;;;;;;;;10209669;28;20586;-64
2020/12/30 11:39:34;;;;;;;17.60;8.47;;;;;;;;;;10195293;28;20248;-64
2020/12/30 11:44:32;;;;;;;19.67;9.27;;;;;;;;;;10210666;28;20041;-62
2020/12/30 11:49:29;;;;;;;18.53;8.83;;;;;;;;;;10206386;28;20041;-63
2020/12/30 11:54:26;;;;;;;14.47;5.60;;;;;;;;;;10180724;28;20030;-62
2020/12/30 11:59:24;;;;;;;20.87;8.87;;;;;;;;;;10197536;28;20137;-62
2020/12/30 12:04:21;;;;;;;24.20;8.37;;;;;;;;;;10189039;28;20107;-63
2020/12/30 12:09:19;;;;;;;14.63;7.57;;;;;;;;;;10193326;28;20042;-62
2020/12/30 12:14:16;;;;;;;11.90;6.23;;;;;;;;;;10177199;28;20463;-63
2020/12/30 12:19:14;;;;;;;17.50;7.33;;;;;;;;;;10201100;28;20046;-64
2020/12/30 12:24:12;;;;;;;14.93;7.53;;;;;;;;;;10205274;28;20137;-64
2020/12/30 12:29:39;;;;;;;15.98;7.43;;;;;;;;;;10192469;28;20453;-63
2020/12/30 12:34:37;;;;;;;20.05;9.68;;;;;;;;;;10214219;28;20408;-64
2020/12/30 12:39:35;;;;;;;20.80;9.43;;;;;;;;;;10186043;28;20039;-63
2020/12/30 12:44:33;;;;;;;18.92;9.13;;;;;;;;;;10190774;28;20078;-64
2020/12/30 12:49:30;;;;;;;15.30;8.80;;;;;;;;;;10207256;28;20700;-62
2020/12/30 12:54:28;;;;;;;22.93;10.13;;;;;;;;;;10188881;28;20522;-63
2020/12/30 12:59:26;;;;;;;17.10;8.52;;;;;;;;;;10202059;28;20035;-64
2020/12/30 13:04:23;;;;;;;16.43;6.93;;;;;;;;;;10196176;28;20528;-63
2020/12/30 13:09:21;;;;;;;22.13;8.63;;;;;;;;;;10177713;28;20282;-62
2020/12/30 13:14:19;;;;;;;10.13;5.07;;;;;;;;;;10195279;28;20085;-63
2020/12/30 13:19:17;;;;;;;15.85;7.13;;;;;;;;;;10187954;28;20042;-64
2020/12/30 13:24:14;;;;;;;12.43;5.95;;;;;;;;;;10186399;28;20093;-66
2020/12/30 13:29:12;;;;;;;12.53;6.63;;;;;;;;;;10178863;28;20616;-62
2020/12/30 13:34:09;;;;;;;18.57;7.60;;;;;;;;;;10208758;28;20073;-63
2020/12/30 13:39:07;;;;;;;14.27;6.83;;;;;;;;;;10205249;28;20320;-63
2020/12/30 13:44:05;;;;;;;16.87;8.33;;;;;;;;;;10184727;28;20038;-64
2020/12/30 13:49:02;;;;;;;14.38;6.97;;;;;;;;;;10207799;28;20061;-62
2020/12/30 13:54:03;;;;;;;13.00;6.93;;;;;;;;;;10210858;28;20042;-62
2020/12/30 13:59:00;;;;;;;19.15;8.30;;;;;;;;;;10213842;28;20121;-63
2020/12/30 14:03:58;;;;;;;18.00;9.17;;;;;;;;;;10222802;28;20042;-62
2020/12/30 14:08:55;;;;;;;14.27;7.27;;;;;;;;;;10201043;28;20058;-64
2020/12/30 14:13:52;;;;;;;16.63;8.13;;;;;;;;;;10199146;28;20504;-60
2020/12/30 14:18:50;;;;;;;13.60;7.47;;;;;;;;;;10199808;28;20052;-63
2020/12/30 14:23:47;;;;;;;16.03;8.83;;;;;;;;;;10195519;28;20045;-62
2020/12/30 14:28:45;;;;;;;12.90;7.47;;;;;;;;;;10195575;28;20038;-62
2020/12/30 14:33:42;;;;;;;14.97;7.13;;;;;;;;;;10202611;28;20065;-63
2020/12/30 14:38:39;;;;;;;19.13;8.37;;;;;;;;;;10212038;28;20039;-62
2020/12/30 14:43:37;;;;;;;16.53;7.80;;;;;;;;;;10206525;28;20041;-62
2020/12/30 14:48:34;;;;;;;18.23;7.47;;;;;;;;;;10198302;28;20034;-62
2020/12/30 14:53:31;;;;;;;14.03;7.77;;;;;;;;;;10198719;28;20062;-62
2020/12/30 14:58:29;;;;;;;23.83;9.03;;;;;;;;;;10205888;28;20038;-64
2020/12/30 15:03:26;;;;;;;12.17;6.57;;;;;;;;;;10193987;28;20042;-62
2020/12/30 15:08:24;;;;;;;20.67;9.77;;;;;;;;;;10167926;28;20559;-62
2020/12/30 15:13:21;;;;;;;22.30;9.50;;;;;;;;;;10194425;28;20049;-63
2020/12/30 15:18:18;;;;;;;19.10;7.83;;;;;;;;;;10184898;28;20113;-60
2020/12/30 15:23:16;;;;;;;18.67;8.57;;;;;;;;;;10174715;28;20041;-62
2020/12/30 15:28:14;;;;;;;14.83;7.13;;;;;;;;;;10172727;28;20481;-62
2020/12/30 15:33:11;;;;;;;13.05;6.57;;;;;;;;;;10199691;28;20406;-62
2020/12/30 15:38:09;;;;;;;15.83;8.13;;;;;;;;;;10204641;28;21473;-64
2020/12/30 15:43:07;;;;;;;21.93;7.80;;;;;;;;;;10185505;28;20413;-62
2020/12/30 15:48:04;;;;;;;17.15;8.70;;;;;;;;;;10208777;28;20039;-62
2020/12/30 15:53:02;;;;;;;14.33;6.97;;;;;;;;;;10198984;28;20042;-62
2020/12/30 15:58:00;;;;;;;16.20;9.03;;;;;;;;;;10208510;28;20042;-62
2020/12/30 16:02:57;;;;;;;15.10;8.80;;;;;;;;;;10217048;28;20172;-62
2020/12/30 16:07:55;;;;;;;13.77;6.97;;;;;;;;;;10193022;28;20504;-63
2020/12/30 16:12:52;;;;;;;16.45;9.23;;;;;;;;;;10165789;28;20034;-62
2020/12/30 16:17:50;;;;;;;18.57;7.60;;;;;;;;;;10202884;28;20042;-63
2020/12/30 16:22:47;;;;;;;19.10;8.90;;;;;;;;;;10187696;28;20034;-62
2020/12/30 16:27:45;;;;;;;14.70;7.00;;;;;;;;;;10183340;28;20121;-62
2020/12/30 16:32:42;;;;;;;13.57;6.67;;;;;;;;;;10201463;28;20153;-63
2020/12/30 16:37:40;;;;;;;15.87;6.80;;;;;;;;;;10139525;28;20590;-63
2020/12/30 16:42:37;;;;;;;14.43;5.93;;;;;;;;;;10148949;28;20068;-65
2020/12/30 16:47:34;;;;;;;16.83;7.97;;;;;;;;;;10192355;28;20594;-63
2020/12/30 16:52:32;;;;;;;17.57;8.70;;;;;;;;;;10187132;28;20054;-64
2020/12/30 16:57:29;;;;;;;18.77;8.60;;;;;;;;;;10191572;28;20063;-62
2020/12/30 17:02:27;;;;;;;17.23;8.57;;;;;;;;;;10184396;28;20037;-64
2020/12/30 17:07:24;;;;;;;18.53;6.50;;;;;;;;;;10202244;28;20049;-62
2020/12/30 17:12:21;;;;;;;18.43;8.50;;;;;;;;;;10206744;28;20046;-62
2020/12/30 17:17:19;;;;;;;22.00;8.13;;;;;;;;;;10186419;28;20044;-62
2020/12/30 17:22:16;;;;;;;17.57;8.47;;;;;;;;;;10195237;28;21292;-62
2020/12/30 17:27:14;;;;;;;16.43;8.37;;;;;;;;;;10197714;28;20038;-62
2020/12/30 17:32:11;;;;;;;19.87;9.87;;;;;;;;;;10215641;28;20062;-62
2020/12/30 17:37:08;;;;;;;19.60;10.47;;;;;;;;;;10202155;28;20030;-62
2020/12/30 17:42:06;;;;;;;19.53;8.20;;;;;;;;;;10211943;28;20460;-62
2020/12/30 17:47:03;;;;;;;24.23;12.97;;;;;;;;;;10216146;28;20045;-61
2020/12/30 17:52:01;;;;;;;20.17;10.70;;;;;;;;;;10197662;28;20046;-62
2020/12/30 17:56:58;;;;;;;30.90;17.70;;;;;;;;;;10208990;28;20042;-61
2020/12/30 18:01:56;;;;;;;24.73;13.07;;;;;;;;;;10215947;28;20114;-61
2020/12/30 18:06:53;;;;;;;18.93;10.03;;;;;;;;;;10187229;28;20037;-64
2020/12/30 18:11:52;;;;;;;21.70;10.63;;;;;;;;;;10204462;28;20473;-63
2020/12/30 18:16:49;;;;;;;23.35;10.15;;;;;;;;;;10206920;28;21066;-63
2020/12/30 18:21:48;;;;;;;19.90;9.60;;;;;;;;;;10177458;28;20389;-64
2020/12/30 18:26:47;;;;;;;24.42;12.00;;;;;;;;;;10215475;28;20113;-64
2020/12/30 18:31:48;;;;;;;19.63;9.35;;;;;;;;;;10197248;28;20034;-64
2020/12/30 18:36:45;;;;;;;22.40;10.52;;;;;;;;;;10176653;28;20027;-64
2020/12/30 18:41:42;;;;;;;22.40;9.77;;;;;;;;;;10203755;28;20488;-64
2020/12/30 18:46:41;;;;;;;20.63;11.00;;;;;;;;;;10201821;28;20053;-63
2020/12/30 18:51:38;;;;;;;19.02;11.25;;;;;;;;;;10205517;28;20122;-65
2020/12/30 18:56:36;;;;;;;23.17;11.77;;;;;;;;;;10215359;28;20520;-62
2020/12/30 19:01:33;;;;;;;18.13;8.73;;;;;;;;;;10204754;28;20041;-63
2020/12/30 19:06:31;;;;;;;23.40;10.40;;;;;;;;;;10210672;28;20899;-64
2020/12/30 19:11:29;;;;;;;21.80;8.80;;;;;;;;;;10184782;28;20101;-64
2020/12/30 19:16:31;;;;;;;14.02;8.45;;;;;;;;;;10210503;28;20382;-63
2020/12/30 19:21:29;;;;;;;24.48;11.82;;;;;;;;;;10195771;28;20075;-63
2020/12/30 19:26:26;;;;;;;19.50;10.97;;;;;;;;;;10208814;28;20031;-63
2020/12/30 19:31:24;;;;;;;25.83;11.10;;;;;;;;;;10202111;28;20137;-63
2020/12/30 19:36:22;;;;;;;21.30;10.98;;;;;;;;;;10195694;28;20464;-64
2020/12/30 19:41:20;;;;;;;18.57;9.33;;;;;;;;;;10202905;28;20104;-64
2020/12/30 19:46:19;;;;;;;;;;;;;;;;;;10208040;28;20141;-62
2020/12/30 19:51:16;;;;;;;23.00;8.00;;;;;;;;;;10195812;28;19972;-64
2020/12/30 19:56:14;;;;;;;18.33;9.27;;;;;;;;;;10196061;28;20038;-65
2020/12/30 20:01:15;;;;;;;22.93;10.63;;;;;;;;;;10170346;28;20362;-65
2020/12/30 20:06:15;;;;;;;19.20;9.98;;;;;;;;;;10193252;28;20042;-65
2020/12/30 20:11:16;;;;;;;20.65;10.48;;;;;;;;;;10196810;28;20503;-64
2020/12/30 20:16:14;;;;;;;20.70;11.48;;;;;;;;;;10199086;28;20182;-63
2020/12/30 20:21:11;;;;;;;15.67;8.73;;;;;;;;;;10195695;28;20043;-65
2020/12/30 20:26:11;;;;;;;21.03;10.43;;;;;;;;;;10197896;28;20034;-64
2020/12/30 20:31:09;;;;;;;21.80;8.40;;;;;;;;;;10195149;28;20129;-64
2020/12/30 20:36:07;;;;;;;17.48;9.18;;;;;;;;;;10173819;28;20073;-63
2020/12/30 20:41:05;;;;;;;15.05;7.13;;;;;;;;;;10201237;28;20057;-64
2020/12/30 20:46:02;;;;;;;11.37;6.87;;;;;;;;;;10200670;28;20236;-63
2020/12/30 20:51:01;;;;;;;18.13;7.85;;;;;;;;;;10186312;28;20047;-62
2020/12/30 20:55:58;;;;;;;12.60;7.03;;;;;;;;;;10198032;28;20038;-65
2020/12/30 21:00:55;;;;;;;14.60;5.43;;;;;;;;;;10184863;28;20393;-64
2020/12/30 21:05:53;;;;;;;15.03;6.30;;;;;;;;;;10195848;28;20343;-64
2020/12/30 21:10:50;;;;;;;11.57;5.83;;;;;;;;;;10182909;28;20079;-65
2020/12/30 21:15:48;;;;;;;13.03;6.03;;;;;;;;;;10192229;28;20035;-64
2020/12/30 21:20:45;;;;;;;6.10;4.33;;;;;;;;;;10195384;28;20038;-64
2020/12/30 21:25:43;;;;;;;6.00;2.90;;;;;;;;;;10196786;28;20263;-64
2020/12/30 21:30:40;;;;;;;11.43;5.97;;;;;;;;;;10194002;28;20074;-64
2020/12/30 21:35:37;;;;;;;11.83;5.83;;;;;;;;;;10194830;28;20057;-63
2020/12/30 21:40:35;;;;;;;7.57;4.73;;;;;;;;;;10201321;28;20047;-64
2020/12/30 21:45:32;;;;;;;6.37;3.87;;;;;;;;;;10190491;28;20309;-63
2020/12/30 21:50:29;;;;;;;7.13;3.27;;;;;;;;;;10197849;28;20491;-63
2020/12/30 21:55:27;;;;;;;7.70;3.83;;;;;;;;;;10214182;28;20048;-64
2020/12/30 22:00:24;;;;;;;6.27;3.77;;;;;;;;;;10207434;28;20035;-64
2020/12/30 22:05:22;;;;;;;8.57;3.97;;;;;;;;;;10197135;28;20074;-65
2020/12/30 22:10:19;;;;;;;5.73;3.50;;;;;;;;;;10158015;28;20058;-63
2020/12/30 22:15:17;;;;;;;4.67;2.77;;;;;;;;;;10203075;28;20046;-63
2020/12/30 22:20:14;;;;;;;5.73;3.10;;;;;;;;;;10187006;28;20468;-64
2020/12/30 22:25:11;;;;;;;11.07;2.93;;;;;;;;;;10185037;28;20061;-64
2020/12/30 22:30:09;;;;;;;4.70;2.80;;;;;;;;;;10190632;28;20039;-63
2020/12/30 22:35:06;;;;;;;7.30;2.83;;;;;;;;;;10179065;28;20046;-64
2020/12/30 22:40:03;;;;;;;4.50;2.47;;;;;;;;;;10185465;28;20046;-63
2020/12/30 22:45:02;;;;;;;3.43;2.33;;;;;;;;;;10205928;28;20133;-64
2020/12/30 22:49:59;;;;;;;5.13;2.53;;;;;;;;;;10199344;28;20064;-64
2020/12/30 22:54:57;;;;;;;7.97;3.10;;;;;;;;;;10191271;28;20541;-63
2020/12/30 22:59:54;;;;;;;7.30;3.27;;;;;;;;;;10191479;28;20035;-64
2020/12/30 23:04:52;;;;;;;6.20;3.13;;;;;;;;;;10193117;28;20046;-63
2020/12/30 23:09:49;;;;;;;17.87;3.27;;;;;;;;;;10196996;28;20517;-64
2020/12/30 23:14:47;;;;;;;3.60;2.57;;;;;;;;;;10195032;28;20390;-64
2020/12/30 23:19:47;;;;;;;6.63;3.20;;;;;;;;;;10189700;28;20039;-64
2020/12/30 23:24:48;;;;;;;6.32;2.63;;;;;;;;;;10181580;28;20038;-65
2020/12/30 23:29:45;;;;;;;5.10;2.60;;;;;;;;;;10185508;28;20039;-64
2020/12/30 23:34:44;;;;;;;3.63;2.53;;;;;;;;;;10194154;28;20065;-63
2020/12/30 23:39:41;;;;;;;8.50;3.43;;;;;;;;;;10187670;28;20054;-64
2020/12/30 23:44:41;;;;;;;7.47;3.20;;;;;;;;;;10181126;28;20536;-64
2020/12/30 23:49:38;;;;;;;3.33;2.80;;;;;;;;;;10202245;28;20381;-63
2020/12/30 23:54:37;;;;;;;6.10;3.40;;;;;;;;;;10196291;28;20038;-64
2020/12/30 23:59:34;;;;;;;5.82;3.28;;;;;;;;;;10170337;28;20130;-64
